Time;durP1;ratioP1;P1;durP2;ratioP2;P2;SDS_P1;SDS_P2;PMS_P1;PMS_P2;Temp;Humidity;BMP_temperature;BMP_pressure;BME280_temperature;BME280_humidity;BME280_pressure;Samples;Min_cycle;Max_cycle;Signal;HPM_P1;HPM_P2
2021/12/12 00:02:44;;;;;;;1999.90;999.90;;;;;;;;;;5031050;28;19913;-83
2021/12/12 00:05:10;;;;;;;1999.90;999.90;;;;;;;;;;5001675;28;20098;-86
2021/12/12 00:07:36;;;;;;;1999.90;999.90;;;;;;;;;;5001354;28;20029;-87
2021/12/12 00:10:07;;;;;;;1999.90;999.90;;;;;;;;;;4983923;28;20045;-85
2021/12/12 00:12:39;;;;;;;1999.90;999.90;;;;;;;;;;5000565;28;20025;-86
2021/12/12 00:15:06;;;;;;;1999.90;999.90;;;;;;;;;;5011806;28;20150;-85
2021/12/12 00:17:31;;;;;;;1999.90;999.90;;;;;;;;;;4989326;28;20022;-86
2021/12/12 00:19:57;;;;;;;1999.90;999.90;;;;;;;;;;5004778;28;20026;-85
2021/12/12 00:22:25;;;;;;;1999.90;999.90;;;;;;;;;;5008314;28;20064;-86
2021/12/12 00:24:52;;;;;;;1999.90;999.90;;;;;;;;;;5003939;28;20057;-85
2021/12/12 00:27:21;;;;;;;1999.90;999.90;;;;;;;;;;4977411;28;20124;-85
2021/12/12 00:29:48;;;;;;;1777.00;771.25;;;;;;;;;;4994548;28;20033;-84
2021/12/12 00:32:15;;;;;;;1999.90;999.90;;;;;;;;;;4980502;28;20018;-86
2021/12/12 00:34:47;;;;;;;1999.90;999.90;;;;;;;;;;4981714;28;20025;-90
2021/12/12 00:37:13;;;;;;;1999.90;999.90;;;;;;;;;;4991685;28;20030;-86
2021/12/12 00:39:40;;;;;;;1999.90;999.90;;;;;;;;;;4991680;28;20029;-86
2021/12/12 00:42:09;;;;;;;1999.90;999.90;;;;;;;;;;4979838;28;20038;-86
2021/12/12 00:44:37;;;;;;;1999.90;999.90;;;;;;;;;;5007688;28;20029;-86
2021/12/12 00:47:03;;;;;;;1999.90;999.90;;;;;;;;;;5006418;28;20026;-86
2021/12/12 00:49:29;;;;;;;1713.47;766.25;;;;;;;;;;4979933;28;20026;-85
2021/12/12 00:51:56;;;;;;;1999.90;999.90;;;;;;;;;;4980299;28;20033;-85
2021/12/12 00:54:23;;;;;;;1999.90;999.90;;;;;;;;;;4978366;28;20046;-85
2021/12/12 00:56:50;;;;;;;1999.90;999.90;;;;;;;;;;4976786;28;20038;-86
2021/12/12 00:59:16;;;;;;;1999.90;999.90;;;;;;;;;;5011823;28;20050;-84
2021/12/12 01:01:47;;;;;;;1999.90;999.90;;;;;;;;;;4994717;28;20021;-84
2021/12/12 01:04:16;;;;;;;1749.97;767.25;;;;;;;;;;5009640;28;20037;-86
2021/12/12 01:06:43;;;;;;;1631.30;765.40;;;;;;;;;;4976413;28;20037;-86
2021/12/12 01:09:19;;;;;;;1762.22;771.30;;;;;;;;;;4981991;28;20033;-86
2021/12/12 01:11:58;;;;;;;1667.05;760.28;;;;;;;;;;4979472;28;20037;-84
2021/12/12 01:14:31;;;;;;;1747.18;778.80;;;;;;;;;;4979661;28;20026;-86
2021/12/12 01:17:06;;;;;;;1999.90;999.90;;;;;;;;;;4995106;28;20446;-85
2021/12/12 01:19:41;;;;;;;1999.90;999.90;;;;;;;;;;5006181;28;20029;-85
2021/12/12 01:22:15;;;;;;;1999.90;999.90;;;;;;;;;;5001207;28;20033;-85
2021/12/12 01:24:45;;;;;;;1999.90;999.90;;;;;;;;;;4998810;28;20475;-85
2021/12/12 01:27:11;;;;;;;1999.90;999.90;;;;;;;;;;5004631;28;20021;-86
2021/12/12 01:29:37;;;;;;;1356.75;522.88;;;;;;;;;;4977893;28;20416;-85
2021/12/12 01:32:12;;;;;;;1373.18;524.03;;;;;;;;;;4981220;28;20845;-85
2021/12/12 01:34:39;;;;;;;1999.90;999.90;;;;;;;;;;4992875;28;20028;-86
2021/12/12 01:37:33;;;;;;;1668.15;760.10;;;;;;;;;;4993265;28;20538;-86
2021/12/12 01:40:19;;;;;;;1999.90;999.90;;;;;;;;;;4990007;28;21677;-84
2021/12/12 01:43:11;;;;;;;1999.90;999.90;;;;;;;;;;5028968;28;20391;-86
2021/12/12 01:45:44;;;;;;;1999.90;999.90;;;;;;;;;;5026576;28;20041;-85
2021/12/12 01:48:29;;;;;;;1576.38;755.03;;;;;;;;;;4979368;28;20037;-86
2021/12/12 01:50:58;;;;;;;1999.90;999.90;;;;;;;;;;5000628;28;20037;-84
2021/12/12 01:53:27;;;;;;;1999.90;999.90;;;;;;;;;;4986604;28;20442;-85
2021/12/12 01:56:20;;;;;;;1429.60;538.47;;;;;;;;;;4989557;28;20069;-86
2021/12/12 01:58:54;;;;;;;1200.78;513.53;;;;;;;;;;5004953;28;20045;-85
2021/12/12 02:01:24;;;;;;;1999.90;999.90;;;;;;;;;;4990604;28;20034;-85
2021/12/12 02:03:53;;;;;;;1999.90;999.90;;;;;;;;;;4978636;28;20048;-86
2021/12/12 02:06:19;;;;;;;1999.90;999.90;;;;;;;;;;4985601;28;20029;-85
2021/12/12 02:08:46;;;;;;;1999.90;999.90;;;;;;;;;;4988630;28;20116;-85
2021/12/12 02:11:16;;;;;;;1659.13;763.25;;;;;;;;;;4986922;28;20029;-85
2021/12/12 02:13:44;;;;;;;1999.90;999.90;;;;;;;;;;4981993;28;20032;-88
2021/12/12 02:16:10;;;;;;;1999.90;999.90;;;;;;;;;;4976158;28;20546;-85
2021/12/12 02:18:39;;;;;;;1999.90;999.90;;;;;;;;;;5008050;28;20033;-86
2021/12/12 02:21:18;;;;;;;1999.90;999.90;;;;;;;;;;4971312;28;20385;-85
2021/12/12 02:35:44;;;;;;;1999.90;999.90;;;;;;;;;;5013523;28;20045;-87
2021/12/12 02:38:30;;;;;;;1999.90;999.90;;;;;;;;;;4980734;28;20050;-88
2021/12/12 02:40:58;;;;;;;1999.90;999.90;;;;;;;;;;4989766;28;20351;-86
2021/12/12 02:43:26;;;;;;;1999.90;999.90;;;;;;;;;;4996022;28;20041;-87
2021/12/12 02:45:56;;;;;;;1999.90;999.90;;;;;;;;;;4980555;28;20022;-87
2021/12/12 02:48:28;;;;;;;1642.00;761.92;;;;;;;;;;4999864;28;20026;-88
2021/12/12 02:50:53;;;;;;;1999.90;999.90;;;;;;;;;;4982676;28;20033;-88
2021/12/12 02:53:27;;;;;;;1999.90;999.90;;;;;;;;;;4998350;28;20049;-88
2021/12/12 02:56:00;;;;;;;1999.90;999.90;;;;;;;;;;4982600;28;20029;-88
2021/12/12 02:58:28;;;;;;;1999.90;999.90;;;;;;;;;;5015262;28;20116;-88
2021/12/12 03:01:09;;;;;;;1708.50;762.65;;;;;;;;;;5015134;28;20029;-88
2021/12/12 03:03:37;;;;;;;1999.90;999.90;;;;;;;;;;4999354;28;20548;-86
2021/12/12 03:06:08;;;;;;;1999.90;999.90;;;;;;;;;;4998823;28;20384;-88
2021/12/12 03:08:36;;;;;;;1999.90;999.90;;;;;;;;;;4998518;28;20029;-88
2021/12/12 03:11:03;;;;;;;1999.90;999.90;;;;;;;;;;4997712;28;20025;-89
2021/12/12 03:13:30;;;;;;;1999.90;999.90;;;;;;;;;;4998656;28;20483;-89
2021/12/12 03:15:56;;;;;;;1999.90;999.90;;;;;;;;;;5011632;28;20026;-88
2021/12/12 03:18:25;;;;;;;1624.72;757.63;;;;;;;;;;4979331;28;20029;-88
2021/12/12 03:20:53;;;;;;;1999.90;999.90;;;;;;;;;;4980879;28;20030;-87
2021/12/12 03:23:28;;;;;;;1999.90;999.90;;;;;;;;;;4983138;28;20049;-87
2021/12/12 03:26:01;;;;;;;1999.90;999.90;;;;;;;;;;4993533;28;20032;-87
2021/12/12 03:28:29;;;;;;;1999.90;999.90;;;;;;;;;;4986165;28;20031;-87
2021/12/12 03:30:58;;;;;;;1581.85;754.92;;;;;;;;;;4998648;28;20087;-86
2021/12/12 03:33:26;;;;;;;1999.90;999.90;;;;;;;;;;4984828;28;20496;-86
2021/12/12 03:35:54;;;;;;;1181.63;510.55;;;;;;;;;;4998840;28;20499;-86
2021/12/12 03:38:21;;;;;;;1999.90;999.90;;;;;;;;;;4982235;28;20470;-86
2021/12/12 03:40:46;;;;;;;1999.90;999.90;;;;;;;;;;5001093;28;20034;-85
2021/12/12 03:43:13;;;;;;;1999.90;999.90;;;;;;;;;;4985075;28;20045;-86
2021/12/12 03:45:39;;;;;;;1999.90;999.90;;;;;;;;;;5017534;28;20022;-86
2021/12/12 03:48:21;;;;;;;1999.90;999.90;;;;;;;;;;5000649;28;20041;-86
2021/12/12 03:50:47;;;;;;;943.17;292.88;;;;;;;;;;4996668;28;20034;-86
2021/12/12 03:53:13;;;;;;;1999.90;999.90;;;;;;;;;;4969891;28;20499;-86
2021/12/12 03:55:39;;;;;;;1999.90;999.90;;;;;;;;;;4993089;28;20044;-86
2021/12/12 03:58:05;;;;;;;1999.90;999.90;;;;;;;;;;4998045;28;20033;-86
2021/12/12 04:00:41;;;;;;;1999.90;999.90;;;;;;;;;;4997522;28;20113;-85
2021/12/12 04:03:07;;;;;;;1999.90;999.90;;;;;;;;;;4997675;28;20061;-85
2021/12/12 04:05:33;;;;;;;1999.90;999.90;;;;;;;;;;4984340;28;20029;-86
2021/12/12 04:07:59;;;;;;;1999.90;999.90;;;;;;;;;;5016802;28;20022;-85
2021/12/12 04:10:25;;;;;;;1999.90;999.90;;;;;;;;;;5017409;28;20037;-86
2021/12/12 04:12:52;;;;;;;1664.82;759.92;;;;;;;;;;5001206;28;20052;-86
2021/12/12 04:15:18;;;;;;;1999.90;999.90;;;;;;;;;;4984866;28;20040;-86
2021/12/12 04:17:43;;;;;;;1999.90;999.90;;;;;;;;;;4984617;28;20338;-86
2021/12/12 04:20:30;;;;;;;1999.90;999.90;;;;;;;;;;4984710;28;20066;-86
2021/12/12 04:22:55;;;;;;;1999.90;999.90;;;;;;;;;;4984549;28;20117;-85
2021/12/12 04:25:22;;;;;;;1543.35;754.08;;;;;;;;;;5013537;28;20041;-86
2021/12/12 04:27:49;;;;;;;1999.90;999.90;;;;;;;;;;4968522;28;20386;-86
2021/12/12 04:30:15;;;;;;;1999.90;999.90;;;;;;;;;;5016456;28;20119;-86
2021/12/12 04:32:41;;;;;;;1999.90;999.90;;;;;;;;;;4996014;28;20184;-85
2021/12/12 04:35:09;;;;;;;1999.90;999.90;;;;;;;;;;4997351;28;20073;-85
2021/12/12 04:37:35;;;;;;;1999.90;999.90;;;;;;;;;;4999913;28;20025;-85
2021/12/12 04:40:01;;;;;;;1999.90;999.90;;;;;;;;;;4994708;28;20472;-86
2021/12/12 04:42:32;;;;;;;1999.90;999.90;;;;;;;;;;5016848;28;20025;-86
2021/12/12 04:45:18;;;;;;;1999.90;999.90;;;;;;;;;;5000463;28;20113;-86
2021/12/12 04:50:58;;;;;;;1999.90;999.90;;;;;;;;;;5019823;28;20506;-85
2021/12/12 04:53:37;;;;;;;1999.90;999.90;;;;;;;;;;4999389;28;20463;-85
2021/12/12 04:56:09;;;;;;;1999.90;999.90;;;;;;;;;;4999458;28;20029;-86
2021/12/12 04:59:00;;;;;;;1999.90;999.90;;;;;;;;;;5016535;28;20116;-85
2021/12/12 05:01:30;;;;;;;1999.90;999.90;;;;;;;;;;5002489;28;20041;-86
2021/12/12 05:04:14;;;;;;;1999.90;999.90;;;;;;;;;;5000317;28;20037;-86
2021/12/12 05:06:43;;;;;;;1999.90;999.90;;;;;;;;;;4983725;28;20042;-86
2021/12/12 05:09:28;;;;;;;1999.90;999.90;;;;;;;;;;4983359;28;20033;-86
2021/12/12 05:12:18;;;;;;;1999.90;999.90;;;;;;;;;;5001991;28;20036;-85
2021/12/12 05:14:54;;;;;;;1999.90;999.90;;;;;;;;;;5015751;28;20040;-85
2021/12/12 05:17:22;;;;;;;1999.90;999.90;;;;;;;;;;4999784;28;20037;-85
2021/12/12 05:19:53;;;;;;;1999.90;999.90;;;;;;;;;;4999149;28;20071;-85
2021/12/12 05:22:22;;;;;;;1999.90;999.90;;;;;;;;;;5015717;28;20080;-85
2021/12/12 05:24:50;;;;;;;1999.90;999.90;;;;;;;;;;4983034;28;20061;-85
2021/12/12 05:27:21;;;;;;;1999.90;999.90;;;;;;;;;;4983392;28;20132;-85
2021/12/12 05:29:56;;;;;;;1999.90;999.90;;;;;;;;;;4983315;28;20157;-85
2021/12/12 05:32:21;;;;;;;1999.90;999.90;;;;;;;;;;4983033;28;20399;-84
2021/12/12 05:34:50;;;;;;;1572.53;755.13;;;;;;;;;;4998985;28;20041;-81
2021/12/12 05:37:17;;;;;;;1999.90;999.90;;;;;;;;;;5016074;28;20103;-82
2021/12/12 05:39:42;;;;;;;1999.90;999.90;;;;;;;;;;4997873;28;20049;-84
2021/12/12 05:42:08;;;;;;;1999.90;999.90;;;;;;;;;;4981939;28;20168;-84
2021/12/12 05:44:34;;;;;;;1999.90;999.90;;;;;;;;;;4991252;28;20065;-85
2021/12/12 05:47:00;;;;;;;1999.90;999.90;;;;;;;;;;4979649;28;20030;-83
2021/12/12 05:49:26;;;;;;;1999.90;999.90;;;;;;;;;;5015414;28;20037;-85
2021/12/12 05:51:51;;;;;;;1999.90;999.90;;;;;;;;;;4982589;28;20033;-83
2021/12/12 05:54:17;;;;;;;1999.90;999.90;;;;;;;;;;5014928;28;20037;-83
2021/12/12 05:56:42;;;;;;;1999.90;999.90;;;;;;;;;;4998339;28;20061;-83
2021/12/12 05:59:09;;;;;;;1139.57;510.00;;;;;;;;;;5015117;28;20029;-85
2021/12/12 06:01:35;;;;;;;1999.90;999.90;;;;;;;;;;4993773;28;20050;-83
2021/12/12 06:04:00;;;;;;;1999.90;999.90;;;;;;;;;;5000756;28;20037;-82
2021/12/12 06:06:28;;;;;;;1999.90;999.90;;;;;;;;;;4980124;28;20387;-82
2021/12/12 06:08:56;;;;;;;1630.63;778.03;;;;;;;;;;5014233;28;20029;-83
2021/12/12 06:11:22;;;;;;;1556.75;754.45;;;;;;;;;;5014029;28;20083;-83
2021/12/12 06:13:48;;;;;;;1584.07;756.08;;;;;;;;;;4982163;28;20029;-83
2021/12/12 06:16:18;;;;;;;1999.90;999.90;;;;;;;;;;4998160;28;20033;-83
2021/12/12 06:18:45;;;;;;;1116.07;509.02;;;;;;;;;;5015190;28;20033;-82
2021/12/12 06:21:11;;;;;;;1999.90;999.90;;;;;;;;;;4998339;28;20044;-83
2021/12/12 06:23:36;;;;;;;1999.90;999.90;;;;;;;;;;5014748;28;20387;-83
2021/12/12 06:26:02;;;;;;;1999.90;999.90;;;;;;;;;;4997503;28;20104;-84
2021/12/12 06:28:29;;;;;;;1999.90;999.90;;;;;;;;;;4994754;28;20042;-84
2021/12/12 06:30:55;;;;;;;1142.00;510.30;;;;;;;;;;4998091;28;20034;-83
2021/12/12 06:33:21;;;;;;;1999.90;999.90;;;;;;;;;;4981668;28;20087;-83
2021/12/12 06:35:46;;;;;;;1999.90;999.90;;;;;;;;;;4998174;28;20041;-83
2021/12/12 06:38:12;;;;;;;1999.90;999.90;;;;;;;;;;4998152;28;20025;-83
2021/12/12 06:40:38;;;;;;;1999.90;999.90;;;;;;;;;;4997896;28;20476;-83
2021/12/12 06:43:05;;;;;;;1162.63;510.80;;;;;;;;;;4997618;28;20025;-83
2021/12/12 06:45:32;;;;;;;1616.72;757.72;;;;;;;;;;4981646;28;20033;-83
2021/12/12 06:47:58;;;;;;;1999.90;999.90;;;;;;;;;;4997312;28;20033;-84
2021/12/12 06:50:24;;;;;;;1999.90;999.90;;;;;;;;;;4996784;28;20037;-83
2021/12/12 06:52:50;;;;;;;1999.90;999.90;;;;;;;;;;4997703;28;20048;-84
2021/12/12 06:55:15;;;;;;;1696.15;764.28;;;;;;;;;;5013093;28;20624;-81
2021/12/12 06:57:42;;;;;;;1999.90;999.90;;;;;;;;;;5013606;28;20033;-80
2021/12/12 07:00:14;;;;;;;1999.90;999.90;;;;;;;;;;4997525;28;20045;-81
2021/12/12 07:02:40;;;;;;;1999.90;999.90;;;;;;;;;;4997492;28;20026;-81
2021/12/12 07:05:06;;;;;;;1999.90;999.90;;;;;;;;;;4997639;28;20080;-81
2021/12/12 07:07:32;;;;;;;1999.90;999.90;;;;;;;;;;4997818;28;20444;-81
2021/12/12 07:09:57;;;;;;;1220.43;513.83;;;;;;;;;;4997655;28;20033;-81
2021/12/12 07:12:23;;;;;;;1999.90;999.90;;;;;;;;;;4996931;28;20029;-81
2021/12/12 07:14:51;;;;;;;1999.90;999.90;;;;;;;;;;4989624;28;20534;-81
2021/12/12 07:17:16;;;;;;;1195.57;511.42;;;;;;;;;;4991768;28;20033;-81
2021/12/12 07:19:42;;;;;;;1999.90;999.90;;;;;;;;;;4995591;28;20186;-81
2021/12/12 07:22:07;;;;;;;1999.90;999.90;;;;;;;;;;5012430;28;20034;-81
2021/12/12 07:24:33;;;;;;;1999.90;999.90;;;;;;;;;;4996991;28;20185;-81
2021/12/12 07:26:59;;;;;;;1999.90;999.90;;;;;;;;;;5014000;28;20029;-81
2021/12/12 07:29:25;;;;;;;1666.88;762.78;;;;;;;;;;4997589;28;20037;-81
2021/12/12 07:31:51;;;;;;;1999.90;999.90;;;;;;;;;;4993834;28;20038;-81
2021/12/12 07:34:16;;;;;;;1999.90;999.90;;;;;;;;;;4961698;28;20484;-81
2021/12/12 07:36:47;;;;;;;1677.30;764.28;;;;;;;;;;5003346;28;20434;-81
2021/12/12 07:39:14;;;;;;;1999.90;999.90;;;;;;;;;;4997206;28;20033;-81
2021/12/12 07:41:40;;;;;;;1999.90;999.90;;;;;;;;;;4993572;28;20026;-81
2021/12/12 07:44:06;;;;;;;1999.90;999.90;;;;;;;;;;5000119;28;20369;-80
2021/12/12 07:46:32;;;;;;;1999.90;999.90;;;;;;;;;;4993734;28;20022;-81
2021/12/12 07:48:57;;;;;;;1999.90;999.90;;;;;;;;;;4978210;28;20492;-80
2021/12/12 07:51:23;;;;;;;1999.90;999.90;;;;;;;;;;4993843;28;20037;-81
2021/12/12 07:53:52;;;;;;;1999.90;999.90;;;;;;;;;;5014140;28;20029;-81
2021/12/12 07:56:21;;;;;;;1999.90;999.90;;;;;;;;;;5013400;28;20071;-81
2021/12/12 07:58:47;;;;;;;1999.90;999.90;;;;;;;;;;5012060;28;20048;-81
2021/12/12 08:01:13;;;;;;;1999.90;999.90;;;;;;;;;;4986805;28;20459;-81
2021/12/12 08:03:38;;;;;;;1999.90;999.90;;;;;;;;;;4996866;28;20528;-81
2021/12/12 08:06:05;;;;;;;1999.90;999.90;;;;;;;;;;4974164;28;20057;-81
2021/12/12 08:08:31;;;;;;;1999.90;999.90;;;;;;;;;;4993475;28;20037;-81
2021/12/12 08:10:57;;;;;;;1999.90;999.90;;;;;;;;;;4983501;28;20528;-81
2021/12/12 08:13:22;;;;;;;777.28;51.35;;;;;;;;;;5000685;28;20156;-81
2021/12/12 08:15:48;;;;;;;1999.90;999.90;;;;;;;;;;4999391;28;20033;-81
2021/12/12 08:18:15;;;;;;;1336.90;523.85;;;;;;;;;;4983670;28;20033;-80
2021/12/12 08:20:43;;;;;;;1999.90;999.90;;;;;;;;;;4999539;28;20522;-80
2021/12/12 08:23:09;;;;;;;1999.90;999.90;;;;;;;;;;5016933;28;20037;-80
2021/12/12 08:25:34;;;;;;;1999.90;999.90;;;;;;;;;;5000545;28;20387;-82
2021/12/12 08:28:00;;;;;;;1999.90;999.90;;;;;;;;;;4993092;28;20120;-81
2021/12/12 08:30:26;;;;;;;1999.90;999.90;;;;;;;;;;4980011;28;20033;-82
2021/12/12 08:32:51;;;;;;;1999.90;999.90;;;;;;;;;;5002527;28;20022;-81
2021/12/12 08:35:18;;;;;;;1999.90;999.90;;;;;;;;;;5000014;28;20402;-82
2021/12/12 08:37:44;;;;;;;1999.90;999.90;;;;;;;;;;4990009;28;20068;-82
2021/12/12 08:40:14;;;;;;;1999.90;999.90;;;;;;;;;;4995795;28;20387;-82
2021/12/12 08:42:39;;;;;;;1999.90;999.90;;;;;;;;;;4983377;28;20033;-82
2021/12/12 08:45:08;;;;;;;1999.90;999.90;;;;;;;;;;5016231;28;20029;-81
2021/12/12 08:47:34;;;;;;;1700.35;762.55;;;;;;;;;;5000010;28;20028;-86
2021/12/12 08:49:59;;;;;;;1999.90;999.90;;;;;;;;;;4980608;28;20034;-82
2021/12/12 08:52:34;;;;;;;1722.65;778.30;;;;;;;;;;4996292;28;20038;-82
2021/12/12 08:55:00;;;;;;;1999.90;999.90;;;;;;;;;;4986136;28;20128;-83
2021/12/12 08:57:33;;;;;;;1704.78;765.05;;;;;;;;;;4998453;28;20041;-82
2021/12/12 09:00:00;;;;;;;1999.90;999.90;;;;;;;;;;4999408;28;20057;-82
2021/12/12 09:02:26;;;;;;;1326.50;520.35;;;;;;;;;;4983012;28;20033;-82
2021/12/12 09:04:57;;;;;;;1999.90;999.90;;;;;;;;;;4997798;28;20125;-82
2021/12/12 09:07:30;;;;;;;1999.90;999.90;;;;;;;;;;4995895;28;20072;-83
2021/12/12 09:10:09;;;;;;;1034.88;74.68;;;;;;;;;;5005836;28;20554;-85
2021/12/12 09:12:40;;;;;;;1999.90;999.90;;;;;;;;;;4996032;28;20850;-82
2021/12/12 09:15:15;;;;;;;1999.90;999.90;;;;;;;;;;4974519;28;20022;-82
2021/12/12 09:18:16;;;;;;;1999.90;999.90;;;;;;;;;;4999163;28;20088;-83
2021/12/12 09:20:50;;;;;;;1999.90;999.90;;;;;;;;;;5015246;28;20037;-83
2021/12/12 09:23:29;;;;;;;1999.90;999.90;;;;;;;;;;4984629;28;20048;-86
2021/12/12 09:26:00;;;;;;;1999.90;999.90;;;;;;;;;;4984117;28;20032;-87
2021/12/12 09:28:44;;;;;;;1829.18;773.88;;;;;;;;;;4999740;28;20025;-80
2021/12/12 09:31:13;;;;;;;1788.20;783.20;;;;;;;;;;4999893;28;20064;-81
2021/12/12 09:33:48;;;;;;;1999.90;999.90;;;;;;;;;;4996149;28;20037;-81
2021/12/12 09:36:19;;;;;;;1453.32;543.30;;;;;;;;;;4970341;28;20029;-80
2021/12/12 09:38:52;;;;;;;1358.30;520.65;;;;;;;;;;5015413;28;20033;-81
2021/12/12 09:41:49;;;;;;;1759.05;773.08;;;;;;;;;;4997908;28;20407;-80
2021/12/12 09:44:23;;;;;;;1780.28;780.47;;;;;;;;;;4997942;28;20032;-81
2021/12/12 09:47:28;;;;;;;1288.13;519.47;;;;;;;;;;5010332;28;20038;-80
2021/12/12 09:53:17;;;;;;;1999.90;999.90;;;;;;;;;;5011883;28;20120;-80
2021/12/12 09:56:03;;;;;;;1718.70;779.67;;;;;;;;;;4998889;28;20057;-81
2021/12/12 09:58:51;;;;;;;1999.90;999.90;;;;;;;;;;4978114;28;20122;-80
2021/12/12 10:01:20;;;;;;;1691.20;770.90;;;;;;;;;;5016144;28;20025;-81
2021/12/12 10:04:08;;;;;;;1999.90;999.90;;;;;;;;;;5011537;28;20038;-81
2021/12/12 10:07:01;;;;;;;1999.90;999.90;;;;;;;;;;5008713;28;20060;-80
2021/12/12 10:09:56;;;;;;;848.47;64.93;;;;;;;;;;4998352;28;20391;-81
2021/12/12 10:12:39;;;;;;;1999.90;999.90;;;;;;;;;;5010101;28;20128;-81
2021/12/12 10:15:12;;;;;;;623.00;69.15;;;;;;;;;;5011007;28;20053;-81
2021/12/12 10:17:46;;;;;;;1687.28;776.17;;;;;;;;;;4998947;28;20033;-81
2021/12/12 10:20:18;;;;;;;1343.97;523.83;;;;;;;;;;4997855;28;20033;-82
2021/12/12 10:23:15;;;;;;;1328.38;530.17;;;;;;;;;;5030685;28;20073;-82
2021/12/12 10:25:58;;;;;;;1999.90;999.90;;;;;;;;;;5013431;28;20049;-83
2021/12/12 10:28:31;;;;;;;1999.90;999.90;;;;;;;;;;4998415;28;20049;-82
2021/12/12 10:31:17;;;;;;;1999.90;999.90;;;;;;;;;;4994777;28;20365;-81
2021/12/12 10:33:47;;;;;;;895.65;67.45;;;;;;;;;;4979781;28;20499;-81
2021/12/12 10:36:23;;;;;;;1834.57;778.65;;;;;;;;;;5011443;28;20034;-80
2021/12/12 10:39:17;;;;;;;1743.10;583.15;;;;;;;;;;5013394;28;20025;-80
2021/12/12 10:41:54;;;;;;;1999.90;999.90;;;;;;;;;;5001093;28;20045;-79
2021/12/12 10:44:23;;;;;;;1999.90;999.90;;;;;;;;;;4996213;28;20029;-79
2021/12/12 10:46:57;;;;;;;1817.07;570.80;;;;;;;;;;5011894;28;20030;-80
2021/12/12 10:49:35;;;;;;;1161.43;156.55;;;;;;;;;;4977685;28;20030;-80
2021/12/12 10:52:07;;;;;;;1936.70;214.00;;;;;;;;;;5010208;28;20042;-80
2021/12/12 10:55:02;;;;;;;1634.60;357.48;;;;;;;;;;4977397;28;20064;-80
2021/12/12 10:57:32;;;;;;;1669.03;203.75;;;;;;;;;;5006726;28;20060;-80
2021/12/12 11:00:17;;;;;;;1943.00;795.47;;;;;;;;;;4993749;28;20040;-80
2021/12/12 11:02:55;;;;;;;1243.78;161.15;;;;;;;;;;5008449;28;20034;-80
2021/12/12 11:05:29;;;;;;;1999.90;999.90;;;;;;;;;;5002040;28;20100;-80
2021/12/12 11:08:01;;;;;;;1425.68;240.18;;;;;;;;;;5010327;28;20092;-80
2021/12/12 11:10:28;;;;;;;;;;;;;;;;;;4997557;28;20033;-80
2021/12/12 11:13:03;;;;;;;1999.90;999.90;;;;;;;;;;4997104;28;19963;-80
2021/12/12 11:16:21;;;;;;;1429.32;191.27;;;;;;;;;;4981045;28;20039;-80
2021/12/12 11:19:08;;;;;;;1999.90;999.90;;;;;;;;;;4982120;28;20488;-80
2021/12/12 11:21:39;;;;;;;1848.30;810.85;;;;;;;;;;5010462;28;20042;-80
2021/12/12 11:24:24;;;;;;;1862.10;803.42;;;;;;;;;;4990262;28;20026;-80
2021/12/12 11:26:57;;;;;;;1987.97;261.02;;;;;;;;;;5009906;28;20174;-80
2021/12/12 11:29:26;;;;;;;1999.90;999.90;;;;;;;;;;5013023;28;20391;-80
2021/12/12 11:31:55;;;;;;;1826.00;600.70;;;;;;;;;;4996511;28;20159;-81
2021/12/12 11:34:24;;;;;;;1664.65;164.45;;;;;;;;;;5008552;28;20030;-80
2021/12/12 11:37:25;;;;;;;1965.25;800.28;;;;;;;;;;4992127;28;20064;-80
2021/12/12 11:40:01;;;;;;;1967.97;830.38;;;;;;;;;;5010145;28;20049;-79
2021/12/12 11:42:57;;;;;;;1541.55;562.20;;;;;;;;;;4981524;28;20034;-79
2021/12/12 11:45:26;;;;;;;1594.53;557.83;;;;;;;;;;5012557;28;20511;-79
2021/12/12 11:48:17;;;;;;;1999.90;632.58;;;;;;;;;;5017537;28;20112;-79
2021/12/12 11:50:57;;;;;;;1999.90;824.70;;;;;;;;;;5030250;28;20749;-79
2021/12/12 11:53:45;;;;;;;1999.90;411.15;;;;;;;;;;5002655;28;20033;-80
2021/12/12 11:56:14;;;;;;;1999.90;999.90;;;;;;;;;;5005753;28;20038;-80
2021/12/12 11:59:04;;;;;;;1435.07;190.68;;;;;;;;;;5028351;28;20380;-80
2021/12/12 12:01:49;;;;;;;1986.68;324.75;;;;;;;;;;5045986;28;20037;-80
2021/12/12 12:04:17;;;;;;;1915.25;612.88;;;;;;;;;;5015657;28;20037;-80
2021/12/12 12:07:24;;;;;;;1889.25;621.28;;;;;;;;;;5032938;28;20029;-80
2021/12/12 12:09:55;;;;;;;1406.90;181.57;;;;;;;;;;5003166;28;20043;-81
2021/12/12 12:12:42;;;;;;;1999.90;514.88;;;;;;;;;;5032632;28;20045;-80
2021/12/12 12:15:13;;;;;;;1999.90;601.90;;;;;;;;;;5031791;28;20033;-80
2021/12/12 12:18:00;;;;;;;1999.90;457.40;;;;;;;;;;4999663;28;20037;-80
2021/12/12 12:20:29;;;;;;;1965.50;597.17;;;;;;;;;;5032765;28;20038;-80
2021/12/12 12:23:17;;;;;;;1499.55;552.58;;;;;;;;;;5029483;28;20476;-80
2021/12/12 12:28:56;;;;;;;1999.90;670.58;;;;;;;;;;5014433;28;20033;-80
2021/12/12 12:31:36;;;;;;;1164.63;234.20;;;;;;;;;;4980863;28;20399;-80
2021/12/12 12:34:38;;;;;;;1054.45;152.60;;;;;;;;;;5028068;28;20045;-80
2021/12/12 12:37:30;;;;;;;1739.95;778.35;;;;;;;;;;5014650;28;20107;-79
2021/12/12 12:40:35;;;;;;;1706.93;205.07;;;;;;;;;;5032604;28;20048;-80
2021/12/12 12:43:37;;;;;;;1999.90;999.90;;;;;;;;;;5016565;28;20025;-79
2021/12/12 12:46:40;;;;;;;1176.18;317.42;;;;;;;;;;5032669;28;20051;-80
2021/12/12 12:49:43;;;;;;;1662.90;404.58;;;;;;;;;;5031715;28;20109;-80
2021/12/12 12:52:47;;;;;;;1999.90;999.90;;;;;;;;;;5040190;28;20048;-81
2021/12/12 12:55:33;;;;;;;1722.63;244.07;;;;;;;;;;5032764;28;20037;-80
2021/12/12 12:58:25;;;;;;;1999.90;453.23;;;;;;;;;;5016285;28;20041;-80
2021/12/12 13:01:18;;;;;;;1923.75;261.83;;;;;;;;;;5016960;28;20049;-79
2021/12/12 13:04:28;;;;;;;1999.90;999.90;;;;;;;;;;4997846;28;20088;-80
2021/12/12 13:06:57;;;;;;;1476.03;181.40;;;;;;;;;;4998060;28;20040;-80
2021/12/12 13:09:32;;;;;;;1999.90;692.33;;;;;;;;;;5016215;28;20035;-80
2021/12/12 13:12:09;;;;;;;1999.90;999.90;;;;;;;;;;5015423;28;20033;-79
2021/12/12 13:15:02;;;;;;;1999.90;358.05;;;;;;;;;;5032145;28;20069;-78
2021/12/12 13:17:47;;;;;;;1403.05;197.15;;;;;;;;;;5000688;28;20039;-79
2021/12/12 13:20:26;;;;;;;1999.90;679.47;;;;;;;;;;5000159;28;20084;-79
2021/12/12 13:22:57;;;;;;;1862.43;577.88;;;;;;;;;;5032645;28;20547;-79
2021/12/12 13:25:34;;;;;;;1594.53;480.10;;;;;;;;;;5032042;28;20092;-80
2021/12/12 13:28:17;;;;;;;1834.20;798.00;;;;;;;;;;4999670;28;20029;-79
2021/12/12 13:31:05;;;;;;;1807.38;301.33;;;;;;;;;;4997022;28;20057;-80
2021/12/12 13:33:51;;;;;;;1999.90;298.60;;;;;;;;;;5009987;28;20148;-79
2021/12/12 13:36:54;;;;;;;1656.35;581.70;;;;;;;;;;5000678;28;20031;-80
2021/12/12 13:39:22;;;;;;;1662.50;762.78;;;;;;;;;;5009640;28;20068;-80
2021/12/12 13:42:06;;;;;;;1530.72;265.70;;;;;;;;;;5008081;28;20037;-80
2021/12/12 13:44:50;;;;;;;1990.47;265.35;;;;;;;;;;5012095;28;20029;-79
2021/12/12 13:47:55;;;;;;;1769.00;604.30;;;;;;;;;;5004920;28;20499;-79
2021/12/12 13:50:41;;;;;;;1999.90;822.67;;;;;;;;;;4997480;28;20025;-80
2021/12/12 13:53:28;;;;;;;1903.30;794.65;;;;;;;;;;5020536;28;20079;-79
2021/12/12 13:56:00;;;;;;;1944.80;798.50;;;;;;;;;;5031747;28;20033;-79
2021/12/12 13:58:27;;;;;;;;;;;;;;;;;;4999908;28;20041;-80
2021/12/12 14:01:00;;;;;;;1629.13;549.45;;;;;;;;;;5011760;28;19909;-79
2021/12/12 14:03:35;;;;;;;1863.10;791.42;;;;;;;;;;4979407;28;20045;-80
2021/12/12 14:06:02;;;;;;;1700.65;145.98;;;;;;;;;;5010561;28;20045;-80
2021/12/12 14:08:32;;;;;;;1544.47;573.60;;;;;;;;;;4994957;28;20053;-80
2021/12/12 14:11:06;;;;;;;1776.90;797.85;;;;;;;;;;5011556;28;20105;-80
2021/12/12 14:13:39;;;;;;;1965.95;262.73;;;;;;;;;;4993470;28;20048;-79
2021/12/12 14:16:26;;;;;;;1999.90;999.90;;;;;;;;;;4992708;28;20055;-80
2021/12/12 14:19:00;;;;;;;1999.90;999.90;;;;;;;;;;5013987;28;20026;-80
2021/12/12 14:21:26;;;;;;;1809.75;149.35;;;;;;;;;;5030824;28;20400;-80
2021/12/12 14:23:51;;;;;;;1999.90;999.90;;;;;;;;;;5014738;28;20041;-80
2021/12/12 14:26:20;;;;;;;1718.15;777.60;;;;;;;;;;4998350;28;20065;-79
2021/12/12 14:28:58;;;;;;;1989.40;261.77;;;;;;;;;;5014559;28;20038;-80
2021/12/12 14:31:28;;;;;;;1253.70;152.05;;;;;;;;;;4998292;28;20616;-80
2021/12/12 14:34:32;;;;;;;1788.32;180.18;;;;;;;;;;4998954;28;20037;-80
2021/12/12 14:37:02;;;;;;;1411.80;553.38;;;;;;;;;;5014236;28;20033;-80
2021/12/12 14:39:31;;;;;;;1462.65;207.80;;;;;;;;;;5013375;28;20056;-80